Time;durP1;ratioP1;P1;durP2;ratioP2;P2;SDS_P1;SDS_P2;PMS_P1;PMS_P2;Temp;Humidity;BMP_temperature;BMP_pressure;BME280_temperature;BME280_humidity;BME280_pressure;Samples;Min_cycle;Max_cycle;Signal;HPM_P1;HPM_P2
2024/02/04 00:01:19;;;;;;;1.53;0.83;;;;;;;8.16;100.00;153455.91;4994928;28;21033;-96
2024/02/04 00:03:46;;;;;;;1.17;0.70;;;;;;;8.16;100.00;153454.59;5011794;28;20455;-95
2024/02/04 00:06:12;;;;;;;0.83;0.63;;;;;;;8.12;100.00;153445.59;5014448;28;20454;-95
2024/02/04 00:08:39;;;;;;;1.00;0.77;;;;;;;8.12;100.00;153445.59;5014113;28;20444;-95
2024/02/04 00:11:08;;;;;;;1.40;1.00;;;;;;;8.16;100.00;153454.59;5014836;28;20442;-96
2024/02/04 00:13:35;;;;;;;1.00;0.60;;;;;;;8.14;100.00;153450.75;5014262;28;20525;-95
2024/02/04 00:16:03;;;;;;;1.10;0.60;;;;;;;8.13;100.00;153446.88;5015304;28;20428;-95
2024/02/04 00:18:30;;;;;;;0.87;0.53;;;;;;;8.10;100.00;153440.38;5014620;28;20459;-96
2024/02/04 00:20:57;;;;;;;1.17;0.60;;;;;;;8.11;100.00;153443.00;5014824;28;20440;-95
2024/02/04 00:23:23;;;;;;;1.17;0.70;;;;;;;8.10;100.00;153440.38;5014484;28;20823;-95
2024/02/04 00:25:50;;;;;;;1.20;0.70;;;;;;;8.06;100.00;153430.06;5015018;28;20828;-95
2024/02/04 00:28:18;;;;;;;1.10;0.67;;;;;;;8.04;100.00;153423.63;5016260;28;20444;-95
2024/02/04 00:30:45;;;;;;;1.20;0.77;;;;;;;8.02;100.00;153419.75;5017056;28;20535;-95
2024/02/04 00:33:13;;;;;;;1.00;0.50;;;;;;;8.02;100.00;153418.44;5014664;28;20925;-96
2024/02/04 00:35:39;;;;;;;1.03;0.70;;;;;;;7.99;100.00;153413.25;5014894;28;20853;-95
2024/02/04 00:38:06;;;;;;;1.20;0.77;;;;;;;7.99;100.00;153412.00;5014390;28;20444;-96
2024/02/04 00:40:33;;;;;;;1.40;0.80;;;;;;;7.96;100.00;153405.53;5014581;28;20506;-96
2024/02/04 00:43:00;;;;;;;1.03;0.53;;;;;;;7.92;100.00;153393.88;5014142;28;20937;-94
2024/02/04 00:45:27;;;;;;;1.00;0.60;;;;;;;7.91;100.00;153391.31;5014055;28;20466;-95
2024/02/04 00:47:53;;;;;;;0.90;0.60;;;;;;;7.88;100.00;153383.56;5014722;28;20436;-95
2024/02/04 00:50:21;;;;;;;1.20;0.60;;;;;;;7.84;100.00;153374.50;5014583;28;20965;-95
2024/02/04 00:52:48;;;;;;;0.93;0.53;;;;;;;7.80;100.00;153364.19;5014032;28;20486;-95
2024/02/04 00:55:15;;;;;;;1.10;0.50;;;;;;;7.78;100.00;153357.72;5013948;28;20475;-94
2024/02/04 00:57:42;;;;;;;0.83;0.60;;;;;;;7.76;100.00;153352.53;5010310;28;20453;-95
2024/02/04 01:00:10;;;;;;;0.80;0.50;;;;;;;7.76;100.00;153352.53;4994344;28;20458;-96
2024/02/04 01:02:36;;;;;;;1.13;0.70;;;;;;;7.74;100.00;153347.38;4997112;28;20444;-95
2024/02/04 01:05:03;;;;;;;1.00;0.50;;;;;;;7.71;100.00;153339.63;5014639;28;20918;-94
2024/02/04 01:07:31;;;;;;;1.07;0.77;;;;;;;7.67;100.00;153329.31;5004496;28;20449;-95
2024/02/04 01:09:58;;;;;;;0.90;0.50;;;;;;;7.63;100.00;153320.25;5015607;28;20454;-95
2024/02/04 01:12:25;;;;;;;1.00;0.67;;;;;;;7.62;100.00;153316.41;5013839;28;20444;-95
2024/02/04 01:14:51;;;;;;;1.00;0.57;;;;;;;7.61;100.00;153313.78;5014046;28;20479;-95
2024/02/04 01:17:18;;;;;;;1.00;0.50;;;;;;;7.58;100.00;153307.34;5014293;28;20540;-95
2024/02/04 01:19:45;;;;;;;0.80;0.50;;;;;;;7.57;100.00;153303.47;5013994;28;20436;-95
2024/02/04 01:22:11;;;;;;;0.80;0.50;;;;;;;7.57;100.00;153303.47;5013844;28;20486;-95
2024/02/04 01:24:39;;;;;;;1.90;0.60;;;;;;;7.58;100.00;153306.03;5014104;28;20955;-96
2024/02/04 01:27:07;;;;;;;0.90;0.60;;;;;;;7.56;100.00;153302.19;5013449;28;20784;-95
2024/02/04 01:29:34;;;;;;;1.00;0.60;;;;;;;7.53;100.00;153294.44;5007492;28;20451;-95
2024/02/04 01:32:00;;;;;;;1.00;0.40;;;;;;;7.51;100.00;153287.97;5013867;28;20898;-95
2024/02/04 01:34:27;;;;;;;1.00;0.50;;;;;;;7.49;100.00;153284.13;5013120;28;20486;-94
2024/02/04 01:36:54;;;;;;;0.87;0.50;;;;;;;7.47;100.00;153277.63;5013284;28;20878;-94
2024/02/04 01:39:22;;;;;;;0.90;0.60;;;;;;;7.43;100.00;153267.31;5012869;28;20459;-93
2024/02/04 01:41:50;;;;;;;1.00;0.50;;;;;;;7.43;100.00;153268.59;5005752;28;20475;-95
2024/02/04 01:44:18;;;;;;;0.83;0.40;;;;;;;7.43;100.00;153268.59;4999703;28;20522;-94
2024/02/04 01:46:45;;;;;;;1.43;0.63;;;;;;;7.41;100.00;153263.44;4997606;28;20445;-94
2024/02/04 01:49:12;;;;;;;0.80;0.50;;;;;;;7.40;100.00;153260.84;4998030;28;20939;-95
2024/02/04 01:51:39;;;;;;;0.80;0.50;;;;;;;7.35;100.00;153247.94;5010856;28;20436;-94
2024/02/04 01:54:07;;;;;;;1.17;0.70;;;;;;;7.33;100.00;153244.03;5017422;28;20479;-95
2024/02/04 01:56:34;;;;;;;0.80;0.40;;;;;;;7.29;100.00;153232.44;5017433;28;20953;-94
2024/02/04 01:59:02;;;;;;;1.20;0.50;;;;;;;7.26;100.00;153225.97;5017557;28;20443;-94
2024/02/04 02:01:29;;;;;;;1.00;0.40;;;;;;;7.28;100.00;153229.88;5017726;28;20483;-94
2024/02/04 02:03:56;;;;;;;0.97;0.50;;;;;;;7.30;100.00;153236.34;5017046;28;20471;-94
2024/02/04 02:06:23;;;;;;;0.80;0.40;;;;;;;7.30;100.00;153236.34;5006157;28;20491;-94
2024/02/04 02:08:50;;;;;;;1.00;0.40;;;;;;;7.31;100.00;153237.59;5017214;28;20475;-94
2024/02/04 02:11:22;;;;;;;0.90;0.40;;;;;;;7.31;100.00;153238.88;5017132;28;20443;-94
2024/02/04 02:13:51;;;;;;;2.07;0.60;;;;;;;7.33;100.00;153244.03;5017076;28;20462;-96
2024/02/04 02:16:22;;;;;;;0.90;0.60;;;;;;;7.33;100.00;153244.03;5017110;28;20444;-95
2024/02/04 02:18:53;;;;;;;1.30;0.40;;;;;;;7.30;100.00;153236.34;5017209;28;20560;-96
2024/02/04 02:21:40;;;;;;;1.07;0.60;;;;;;;7.27;100.00;153228.56;4997802;28;20781;-95
2024/02/04 02:24:12;;;;;;;0.90;0.50;;;;;;;7.28;100.00;153229.88;5013438;28;20476;-94
2024/02/04 02:26:41;;;;;;;2.60;0.50;;;;;;;7.30;100.00;153236.34;4997383;28;20496;-95
2024/02/04 02:29:08;;;;;;;1.93;0.60;;;;;;;7.32;100.00;153241.47;5020576;28;20443;-95
2024/02/04 02:31:35;;;;;;;1.73;0.60;;;;;;;7.31;100.00;153237.59;5017073;28;20439;-95
2024/02/04 02:34:03;;;;;;;0.90;0.50;;;;;;;7.31;100.00;153238.88;5017655;28;20995;-95
2024/02/04 02:36:32;;;;;;;0.90;0.60;;;;;;;7.30;100.00;153236.34;5019460;28;20454;-94
2024/02/04 02:39:02;;;;;;;0.80;0.40;;;;;;;7.14;100.00;153195.00;5016606;28;20509;-95
2024/02/04 02:41:31;;;;;;;0.90;0.50;;;;;;;7.10;100.00;153184.66;5016892;28;20439;-95
2024/02/04 02:44:00;;;;;;;1.20;0.60;;;;;;;7.08;100.00;153178.19;5016539;28;20444;-96
2024/02/04 02:46:28;;;;;;;1.10;0.60;;;;;;;7.07;100.00;153175.66;5016887;28;20439;-95
2024/02/04 02:48:55;;;;;;;0.80;0.50;;;;;;;7.06;100.00;153174.34;5016670;28;20469;-94
2024/02/04 02:51:21;;;;;;;1.00;0.60;;;;;;;7.09;100.00;153180.81;4999436;28;20441;-95
2024/02/04 02:53:51;;;;;;;1.13;0.60;;;;;;;7.11;100.00;153187.25;4997934;28;20452;-94
2024/02/04 02:56:18;;;;;;;1.20;0.60;;;;;;;7.11;100.00;153185.94;4996605;28;20476;-95
2024/02/04 02:58:44;;;;;;;1.87;0.70;;;;;;;7.11;100.00;153187.25;5004306;28;20549;-95
2024/02/04 03:01:13;;;;;;;1.20;0.63;;;;;;;7.11;100.00;153187.25;5015014;28;20447;-94
2024/02/04 03:03:40;;;;;;;1.20;0.60;;;;;;;7.11;100.00;153187.25;5016063;28;20930;-95
2024/02/04 03:06:07;;;;;;;1.03;0.60;;;;;;;7.13;100.00;153192.41;5016015;28;20428;-95
2024/02/04 03:08:34;;;;;;;1.10;0.63;;;;;;;7.13;100.00;153192.41;5015878;28;20450;-95
2024/02/04 03:11:02;;;;;;;0.90;0.40;;;;;;;7.12;100.00;153189.81;5015492;28;20448;-95
2024/02/04 03:13:30;;;;;;;0.80;0.47;;;;;;;7.13;100.00;153191.09;5015935;28;20447;-95
2024/02/04 03:15:57;;;;;;;1.40;0.70;;;;;;;7.12;100.00;153189.81;5016032;28;20472;-95
2024/02/04 03:18:25;;;;;;;0.87;0.50;;;;;;;7.10;100.00;153184.66;5015726;28;20442;-95
2024/02/04 03:20:51;;;;;;;1.30;0.70;;;;;;;7.10;100.00;153184.66;5016260;28;21002;-95
2024/02/04 03:23:19;;;;;;;0.80;0.50;;;;;;;7.09;100.00;153182.09;5015209;28;20525;-95
2024/02/04 03:25:46;;;;;;;1.30;0.77;;;;;;;7.11;100.00;153185.94;5017768;28;20440;-95
2024/02/04 03:28:12;;;;;;;1.00;0.60;;;;;;;7.11;100.00;153185.94;5017778;28;20444;-94
2024/02/04 03:30:39;;;;;;;1.10;0.70;;;;;;;7.10;100.00;153183.34;5018666;28;20458;-95
2024/02/04 03:33:06;;;;;;;1.00;0.60;;;;;;;7.13;100.00;153192.41;5024068;28;20456;-94
2024/02/04 03:35:36;;;;;;;0.77;0.47;;;;;;;7.12;100.00;153189.81;5038727;28;20475;-95
2024/02/04 03:38:04;;;;;;;1.50;0.50;;;;;;;7.12;100.00;153189.81;5038778;28;20455;-95
2024/02/04 03:40:30;;;;;;;1.10;0.60;;;;;;;7.14;100.00;153195.00;5038453;28;20426;-95
2024/02/04 03:42:57;;;;;;;1.00;0.53;;;;;;;7.15;100.00;153197.56;5034568;28;20443;-95
2024/02/04 03:45:24;;;;;;;1.00;0.50;;;;;;;7.18;100.00;153205.31;5032839;28;20970;-95
2024/02/04 03:47:51;;;;;;;1.00;0.63;;;;;;;7.16;100.00;153198.84;5020579;28;20428;-94
2024/02/04 03:50:17;;;;;;;0.80;0.40;;;;;;;7.16;100.00;153200.16;5015320;28;20510;-95
2024/02/04 03:52:45;;;;;;;1.07;0.50;;;;;;;7.17;100.00;153202.75;5014994;28;20497;-94
2024/02/04 03:55:12;;;;;;;1.67;0.60;;;;;;;7.16;100.00;153200.16;5014956;28;20537;-95
2024/02/04 03:57:39;;;;;;;0.93;0.60;;;;;;;7.17;100.00;153202.75;5015026;28;20436;-94
2024/02/04 04:00:08;;;;;;;0.80;0.40;;;;;;;7.17;100.00;153202.75;5014616;28;20456;-95
2024/02/04 04:02:38;;;;;;;1.03;0.67;;;;;;;7.16;100.00;153200.16;5031181;28;20452;-95
2024/02/04 04:05:05;;;;;;;0.90;0.40;;;;;;;7.17;100.00;153201.47;5014541;28;20538;-95
2024/02/04 04:07:32;;;;;;;1.20;0.50;;;;;;;7.20;100.00;153210.47;5014736;28;20463;-95
2024/02/04 04:10:00;;;;;;;1.03;0.53;;;;;;;7.19;100.00;153207.91;5014532;28;20446;-95
2024/02/04 04:12:27;;;;;;;0.90;0.53;;;;;;;7.20;100.00;153210.47;5014612;28;20452;-95
2024/02/04 04:14:54;;;;;;;1.20;0.60;;;;;;;7.19;100.00;153207.91;5014653;28;20483;-95
2024/02/04 04:17:20;;;;;;;1.10;0.40;;;;;;;7.18;100.00;153205.31;5014633;28;20543;-94
2024/02/04 04:19:47;;;;;;;1.10;0.60;;;;;;;7.17;100.00;153201.47;5014474;28;20447;-95
2024/02/04 04:22:14;;;;;;;1.07;0.50;;;;;;;7.14;100.00;153193.72;5014346;28;20468;-95
2024/02/04 04:24:40;;;;;;;1.90;0.67;;;;;;;7.14;100.00;153195.00;5014438;28;20542;-94
2024/02/04 04:27:08;;;;;;;0.90;0.60;;;;;;;7.17;100.00;153201.47;5014298;28;20451;-95
2024/02/04 04:29:35;;;;;;;1.63;0.77;;;;;;;7.16;100.00;153200.16;5014097;28;20463;-95
2024/02/04 04:32:01;;;;;;;1.00;0.60;;;;;;;7.15;100.00;153197.56;5014588;28;20440;-94
2024/02/04 04:34:28;;;;;;;0.93;0.60;;;;;;;7.15;100.00;153197.56;5014126;28;20452;-95
2024/02/04 04:36:55;;;;;;;2.80;0.70;;;;;;;7.12;100.00;153189.81;5030640;28;20490;-95
2024/02/04 04:39:21;;;;;;;1.10;0.60;;;;;;;7.13;100.00;153192.41;5016090;28;20443;-95
2024/02/04 04:41:48;;;;;;;1.10;0.73;;;;;;;7.14;100.00;153193.72;5015492;28;20447;-95
2024/02/04 04:44:16;;;;;;;1.13;0.63;;;;;;;7.12;100.00;153189.81;5013776;28;20464;-95
2024/02/04 04:46:43;;;;;;;0.93;0.53;;;;;;;7.12;100.00;153189.81;5013651;28;20520;-95
2024/02/04 04:49:10;;;;;;;1.10;0.60;;;;;;;7.15;100.00;153197.56;5013745;28;20470;-95
2024/02/04 04:51:37;;;;;;;1.07;0.50;;;;;;;7.15;100.00;153196.25;4995454;28;20478;-94
2024/02/04 04:54:03;;;;;;;1.37;0.60;;;;;;;7.12;100.00;153188.56;5003838;28;20440;-95
2024/02/04 04:56:30;;;;;;;0.83;0.50;;;;;;;7.10;100.00;153183.34;5013763;28;21011;-95
2024/02/04 04:58:57;;;;;;;1.10;0.70;;;;;;;7.07;100.00;153176.91;5013529;28;20818;-94
2024/02/04 05:01:24;;;;;;;1.30;0.80;;;;;;;7.07;100.00;153175.66;5013560;28;20435;-95
2024/02/04 05:03:51;;;;;;;1.43;0.50;;;;;;;7.10;100.00;153183.34;5010176;28;20456;-96
2024/02/04 05:06:18;;;;;;;0.90;0.60;;;;;;;7.10;100.00;153184.66;4994144;28;20445;-95
2024/02/04 05:08:44;;;;;;;1.10;0.63;;;;;;;7.09;100.00;153182.09;4994207;28;20449;-95
2024/02/04 05:11:11;;;;;;;1.33;0.67;;;;;;;7.07;100.00;153176.91;4993692;28;20445;-95
2024/02/04 05:13:39;;;;;;;1.30;0.60;;;;;;;7.10;100.00;153184.66;4993895;28;20456;-94
2024/02/04 05:16:06;;;;;;;1.10;0.60;;;;;;;7.11;100.00;153187.25;4993073;28;20477;-94
2024/02/04 05:18:34;;;;;;;0.90;0.40;;;;;;;7.11;100.00;153187.25;4993901;28;20445;-95
2024/02/04 05:21:02;;;;;;;1.20;0.70;;;;;;;7.11;100.00;153187.25;4993771;28;20447;-95
2024/02/04 05:23:28;;;;;;;0.80;0.40;;;;;;;7.13;100.00;153192.41;4994014;28;20485;-95
2024/02/04 05:25:55;;;;;;;0.90;0.50;;;;;;;7.15;100.00;153197.56;4993949;28;20445;-95
2024/02/04 05:28:21;;;;;;;0.90;0.50;;;;;;;7.14;100.00;153195.00;4994025;28;20498;-95
2024/02/04 05:30:48;;;;;;;1.20;0.60;;;;;;;7.14;100.00;153195.00;4993489;28;20448;-94
2024/02/04 05:33:15;;;;;;;0.90;0.50;;;;;;;7.13;100.00;153192.41;4993895;28;20443;-94
2024/02/04 05:35:43;;;;;;;0.80;0.43;;;;;;;7.13;100.00;153192.41;4993765;28;21002;-95
2024/02/04 05:38:10;;;;;;;0.87;0.40;;;;;;;7.13;100.00;153192.41;4993697;28;20528;-95
2024/02/04 05:40:37;;;;;;;0.80;0.40;;;;;;;7.11;100.00;153187.25;4993572;28;20448;-95
2024/02/04 05:43:07;;;;;;;0.70;0.40;;;;;;;7.11;100.00;153187.25;4995978;28;20436;-95
2024/02/04 05:45:34;;;;;;;1.10;0.60;;;;;;;7.11;100.00;153185.94;5013414;28;20490;-94
2024/02/04 05:48:04;;;;;;;0.90;0.47;;;;;;;7.12;100.00;153189.81;5012603;28;20452;-95
2024/02/04 05:50:31;;;;;;;0.87;0.43;;;;;;;7.09;100.00;153182.09;5013510;28;20452;-94
2024/02/04 05:52:59;;;;;;;0.90;0.40;;;;;;;7.11;100.00;153185.94;5013195;28;20446;-95
2024/02/04 05:55:26;;;;;;;0.90;0.40;;;;;;;7.08;100.00;153179.50;5012952;28;20486;-94
2024/02/04 05:57:52;;;;;;;0.80;0.40;;;;;;;7.05;100.00;153171.75;5013185;28;20534;-95
2024/02/04 06:00:19;;;;;;;1.47;0.60;;;;;;;7.04;100.00;153167.91;5013054;28;20538;-95
2024/02/04 06:02:46;;;;;;;0.80;0.40;;;;;;;7.04;100.00;153169.16;5013119;28;20452;-95
2024/02/04 06:05:13;;;;;;;1.00;0.47;;;;;;;7.03;100.00;153166.59;5013006;28;20498;-94
2024/02/04 06:07:40;;;;;;;0.90;0.50;;;;;;;7.03;100.00;153166.59;5013214;28;20458;-95
2024/02/04 06:10:11;;;;;;;1.20;0.60;;;;;;;7.02;100.00;153164.00;5013284;28;20452;-95
2024/02/04 06:12:40;;;;;;;0.90;0.40;;;;;;;7.04;100.00;153167.91;5013038;28;20938;-95
2024/02/04 06:15:12;;;;;;;0.87;0.30;;;;;;;7.02;100.00;153164.00;5013171;28;20451;-95
2024/02/04 06:17:39;;;;;;;0.80;0.50;;;;;;;7.02;100.00;153162.69;5013100;28;20444;-94
2024/02/04 06:20:06;;;;;;;1.00;0.53;;;;;;;6.97;100.00;153151.09;5013305;28;20447;-95
2024/02/04 06:22:33;;;;;;;0.70;0.30;;;;;;;7.00;100.00;153157.53;5012955;28;20495;-95
2024/02/04 06:25:00;;;;;;;0.70;0.30;;;;;;;7.01;100.00;153161.44;5013304;28;20451;-94
2024/02/04 06:27:28;;;;;;;0.83;0.40;;;;;;;7.00;100.00;153158.84;5014911;28;20539;-94
2024/02/04 06:29:54;;;;;;;1.77;0.50;;;;;;;6.99;100.00;153155.00;5016086;28;20452;-96
2024/02/04 06:32:24;;;;;;;0.90;0.50;;;;;;;6.99;100.00;153155.00;5016262;28;20443;-95
2024/02/04 06:34:51;;;;;;;0.90;0.57;;;;;;;7.00;100.00;153158.84;5016894;28;20915;-95
2024/02/04 06:37:18;;;;;;;0.93;0.50;;;;;;;7.01;100.00;153161.44;5016542;28;20475;-95
2024/02/04 06:39:44;;;;;;;1.27;0.60;;;;;;;6.99;100.00;153155.00;5016245;28;20459;-94
2024/02/04 06:42:11;;;;;;;0.90;0.30;;;;;;;6.99;100.00;153155.00;5016413;28;20455;-95
2024/02/04 06:44:39;;;;;;;1.73;0.50;;;;;;;7.00;100.00;153158.84;5016394;28;20444;-94
2024/02/04 06:47:06;;;;;;;0.90;0.30;;;;;;;7.02;100.00;153164.00;5016366;28;20485;-94
2024/02/04 06:49:32;;;;;;;0.90;0.50;;;;;;;7.00;100.00;153157.53;5016847;28;20444;-95
2024/02/04 06:51:59;;;;;;;1.00;0.40;;;;;;;7.00;100.00;153158.84;5016323;28;20455;-94
2024/02/04 06:54:26;;;;;;;0.90;0.50;;;;;;;7.01;100.00;153161.44;5016215;28;20455;-94
2024/02/04 06:56:53;;;;;;;0.87;0.47;;;;;;;7.02;100.00;153162.69;5015953;28;20479;-94
2024/02/04 06:59:19;;;;;;;1.10;0.40;;;;;;;7.01;100.00;153160.13;5016073;28;20440;-94
2024/02/04 07:01:47;;;;;;;0.80;0.40;;;;;;;7.01;100.00;153161.44;5015609;28;20498;-93
2024/02/04 07:04:14;;;;;;;1.03;0.60;;;;;;;7.01;100.00;153161.44;5015670;28;20444;-94
2024/02/04 07:06:41;;;;;;;1.57;0.70;;;;;;;7.01;100.00;153161.44;5016003;28;20455;-94
2024/02/04 07:09:07;;;;;;;0.80;0.50;;;;;;;6.99;100.00;153156.25;5015998;28;20432;-94
2024/02/04 07:11:34;;;;;;;1.13;0.90;;;;;;;6.99;100.00;153155.00;5015538;28;20542;-94
2024/02/04 07:14:01;;;;;;;1.00;0.70;;;;;;;6.99;100.00;153156.25;5015596;28;20459;-94
2024/02/04 07:16:35;;;;;;;1.37;0.60;;;;;;;7.00;100.00;153158.84;5016531;28;20471;-94
2024/02/04 07:19:04;;;;;;;1.13;0.70;;;;;;;7.00;100.00;153158.84;5015807;28;20475;-94
2024/02/04 07:21:30;;;;;;;0.90;0.60;;;;;;;7.02;100.00;153162.69;5015983;28;20459;-94
2024/02/04 07:23:57;;;;;;;1.00;0.60;;;;;;;7.01;100.00;153160.13;5015422;28;20495;-94
2024/02/04 07:26:23;;;;;;;1.20;0.90;;;;;;;7.00;100.00;153158.84;5026047;22;20496;-94
2024/02/04 07:28:50;;;;;;;1.00;0.60;;;;;;;7.01;100.00;153160.13;5033649;28;20432;-95
2024/02/04 07:31:17;;;;;;;0.90;0.50;;;;;;;7.02;100.00;153164.00;5035089;28;20432;-94
2024/02/04 07:33:43;;;;;;;0.87;0.50;;;;;;;7.04;100.00;153167.91;5032581;28;20443;-95
2024/02/04 07:36:11;;;;;;;0.90;0.50;;;;;;;7.09;100.00;153182.09;5033176;28;20533;-95
2024/02/04 07:38:38;;;;;;;0.90;0.70;;;;;;;7.15;100.00;153197.56;5015282;28;20444;-94
2024/02/04 07:41:05;;;;;;;1.10;0.50;;;;;;;7.19;100.00;153207.91;5065449;28;20837;-96
2024/02/04 07:43:31;;;;;;;1.10;0.60;;;;;;;7.22;100.00;153215.66;5033320;28;20448;-96
2024/02/04 07:45:58;;;;;;;1.20;0.57;;;;;;;7.25;100.00;153222.13;5033277;28;20439;-96
2024/02/04 07:48:24;;;;;;;1.77;0.67;;;;;;;7.28;100.00;153231.13;5031832;28;20456;-95
2024/02/04 07:50:51;;;;;;;1.03;0.60;;;;;;;7.53;100.00;153293.13;5031776;28;20921;-95
2024/02/04 07:53:19;;;;;;;1.23;0.60;;;;;;;7.74;100.00;153347.38;5031706;28;20448;-94
2024/02/04 07:55:45;;;;;;;1.30;1.00;;;;;;;7.78;100.00;153357.72;5032235;28;20463;-95
2024/02/04 07:58:12;;;;;;;1.57;1.03;;;;;;;7.74;100.00;153347.38;5016195;28;20454;-96
2024/02/04 08:00:38;;;;;;;1.00;0.60;;;;;;;7.67;100.00;153329.31;5032179;28;20435;-95
2024/02/04 08:03:05;;;;;;;1.00;0.70;;;;;;;7.66;100.00;153326.72;5032160;28;20913;-94
2024/02/04 08:05:35;;;;;;;1.17;0.70;;;;;;;7.62;100.00;153316.41;5015222;28;20443;-95
2024/02/04 08:08:01;;;;;;;1.00;0.63;;;;;;;7.63;100.00;153318.94;5015289;28;20455;-94
2024/02/04 08:10:36;;;;;;;1.00;0.70;;;;;;;7.66;100.00;153328.00;5015480;28;20439;-77
2024/02/04 08:13:03;;;;;;;1.90;0.67;;;;;;;7.68;100.00;153333.16;4995351;28;20451;-95
2024/02/04 08:15:30;;;;;;;1.17;0.67;;;;;;;7.66;100.00;153326.72;4995391;28;20445;-96
2024/02/04 08:17:56;;;;;;;1.13;0.80;;;;;;;7.64;100.00;153321.56;4995519;28;20524;-96
2024/02/04 08:20:25;;;;;;;1.00;0.63;;;;;;;7.61;100.00;153315.09;4995853;28;20490;-96
2024/02/04 08:22:52;;;;;;;1.03;0.63;;;;;;;7.63;100.00;153318.94;5028442;28;20453;-94
2024/02/04 08:25:19;;;;;;;1.20;0.70;;;;;;;7.65;100.00;153324.16;5028094;28;20472;-93
2024/02/04 08:27:47;;;;;;;1.53;1.00;;;;;;;7.66;100.00;153326.72;4997146;28;20534;-94
2024/02/04 08:30:15;;;;;;;2.03;1.00;;;;;;;7.66;100.00;153326.72;5014398;28;20635;-92
2024/02/04 08:32:42;;;;;;;1.00;0.60;;;;;;;7.70;100.00;153337.06;5014506;28;20455;-94
2024/02/04 08:35:09;;;;;;;1.57;0.73;;;;;;;7.74;100.00;153347.38;5014980;28;20440;-93
2024/02/04 08:37:37;;;;;;;1.30;0.70;;;;;;;7.78;100.00;153357.72;5014356;28;20490;-93
2024/02/04 08:40:06;;;;;;;1.53;0.87;;;;;;;7.85;100.00;153375.81;5014678;28;20440;-94
2024/02/04 08:42:33;;;;;;;0.90;0.50;;;;;;;7.90;100.00;153390.03;5014823;28;20455;-91
2024/02/04 08:45:02;;;;;;;1.37;0.73;;;;;;;7.90;100.00;153390.03;5014694;28;20455;-92
2024/02/04 08:47:28;;;;;;;1.40;0.60;;;;;;;7.91;100.00;153392.63;5047296;28;20460;-93
2024/02/04 08:49:55;;;;;;;1.20;0.90;;;;;;;7.92;100.00;153393.88;5013347;28;20915;-90
2024/02/04 08:52:22;;;;;;;1.17;0.70;;;;;;;7.92;100.00;153395.19;5028224;28;20452;-90
2024/02/04 08:54:49;;;;;;;1.00;0.60;;;;;;;7.94;100.00;153400.34;5003061;28;21112;-91
2024/02/04 08:57:16;;;;;;;1.90;0.70;;;;;;;7.97;100.00;153406.78;5011554;28;20480;-95
2024/02/04 08:59:43;;;;;;;0.80;0.43;;;;;;;7.98;100.00;153409.41;5014903;28;20817;-95
2024/02/04 09:02:11;;;;;;;1.30;0.70;;;;;;;7.99;100.00;153412.00;5030784;28;20797;-95
2024/02/04 09:04:40;;;;;;;1.23;0.60;;;;;;;8.02;100.00;153419.75;5031988;28;20442;-95
2024/02/04 09:07:07;;;;;;;1.17;0.67;;;;;;;8.01;100.00;153417.16;5032074;28;20440;-95
2024/02/04 09:09:33;;;;;;;1.57;0.80;;;;;;;8.07;100.00;153432.66;5032557;28;20431;-95
2024/02/04 09:12:00;;;;;;;1.00;0.60;;;;;;;8.11;100.00;153443.00;5030534;28;20447;-96
2024/02/04 09:14:27;;;;;;;1.10;0.53;;;;;;;8.17;100.00;153457.19;5026307;28;20925;-95
2024/02/04 09:16:53;;;;;;;1.47;0.63;;;;;;;8.18;100.00;153461.06;5026944;28;20495;-96
2024/02/04 09:19:22;;;;;;;1.10;0.60;;;;;;;8.20;100.00;153466.28;5044201;28;20457;-95
2024/02/04 09:21:48;;;;;;;1.20;0.60;;;;;;;8.22;100.00;153470.13;5010674;28;20459;-95
2024/02/04 09:24:15;;;;;;;0.97;0.67;;;;;;;8.23;100.00;153472.72;5012978;28;20445;-94
2024/02/04 09:26:41;;;;;;;1.00;0.53;;;;;;;8.26;100.00;153480.50;5027110;28;20476;-94
2024/02/04 09:29:08;;;;;;;1.07;0.50;;;;;;;8.27;100.00;153484.41;5011924;28;20439;-95
2024/02/04 09:31:35;;;;;;;1.10;0.57;;;;;;;8.28;100.00;153487.00;5012465;28;20464;-94
2024/02/04 09:34:01;;;;;;;0.90;0.40;;;;;;;8.30;100.00;153492.16;5027531;28;20453;-94
2024/02/04 09:36:29;;;;;;;0.90;0.70;;;;;;;8.33;100.00;153499.91;5044163;28;20855;-95
2024/02/04 09:38:56;;;;;;;1.00;0.43;;;;;;;8.36;100.00;153507.69;5013161;28;20444;-94
2024/02/04 09:41:24;;;;;;;1.67;0.50;;;;;;;8.36;100.00;153507.69;5011362;28;20512;-95
2024/02/04 09:43:51;;;;;;;0.90;0.50;;;;;;;8.42;100.00;153523.16;5012355;28;20530;-95
2024/02/04 09:46:18;;;;;;;0.90;0.33;;;;;;;8.46;100.00;153532.22;5043239;28;20444;-95
2024/02/04 09:48:46;;;;;;;1.20;0.60;;;;;;;8.54;100.00;153554.19;5011947;28;20432;-95
2024/02/04 09:51:12;;;;;;;3.23;0.87;;;;;;;8.57;100.00;153561.97;5027320;28;20833;-94
2024/02/04 09:53:44;;;;;;;0.80;0.50;;;;;;;8.64;100.00;153577.44;5027171;28;20475;-95
2024/02/04 09:56:12;;;;;;;1.53;0.60;;;;;;;8.68;100.00;153589.13;5012367;28;20435;-94
2024/02/04 09:58:39;;;;;;;1.10;0.50;;;;;;;8.71;100.00;153595.56;5011556;28;20441;-95
2024/02/04 10:01:08;;;;;;;0.90;0.50;;;;;;;8.77;100.00;153611.06;4994045;28;20439;-94
2024/02/04 10:03:35;;;;;;;1.93;0.63;;;;;;;8.82;100.00;153623.97;5015728;28;20915;-94
2024/02/04 10:06:01;;;;;;;0.90;0.60;;;;;;;8.84;100.00;153629.19;5015567;28;20796;-95
2024/02/04 10:08:28;;;;;;;1.00;0.50;;;;;;;8.89;100.00;153642.13;5047352;28;20444;-95
2024/02/04 10:10:57;;;;;;;2.50;0.67;;;;;;;8.90;100.00;153644.66;5015236;28;20471;-95
2024/02/04 10:13:24;;;;;;;0.90;0.40;;;;;;;8.92;100.00;153649.88;5030389;28;20444;-95
2024/02/04 10:15:51;;;;;;;1.03;0.40;;;;;;;8.91;100.00;153647.28;5015390;28;20543;-95
2024/02/04 10:18:18;;;;;;;1.40;0.60;;;;;;;8.98;100.00;153665.34;5018343;28;20480;-93
2024/02/04 10:20:45;;;;;;;0.70;0.37;;;;;;;9.05;100.00;153683.50;5017076;28;20479;-95
2024/02/04 10:23:11;;;;;;;0.97;0.50;;;;;;;9.12;100.00;153701.59;5015572;28;20519;-94
2024/02/04 10:25:38;;;;;;;0.80;0.33;;;;;;;9.19;100.00;153719.69;5015345;28;20444;-94
2024/02/04 10:28:07;;;;;;;1.53;0.50;;;;;;;9.25;100.00;153733.91;5057477;28;20486;-94
2024/02/04 10:30:34;;;;;;;0.80;0.30;;;;;;;9.24;100.00;153731.34;5040520;28;20873;-94
2024/02/04 10:33:01;;;;;;;0.70;0.20;;;;;;;9.28;100.00;153742.97;5024360;28;20519;-95
2024/02/04 10:35:27;;;;;;;0.93;0.40;;;;;;;9.32;100.00;153753.31;5040915;28;20443;-94
2024/02/04 10:37:54;;;;;;;0.70;0.30;;;;;;;9.38;100.00;153768.84;5041910;28;20510;-94
2024/02/04 10:40:21;;;;;;;0.80;0.30;;;;;;;9.42;100.00;153779.22;5039246;28;20558;-94
2024/02/04 10:42:50;;;;;;;0.80;0.30;;;;;;;9.51;100.00;153801.16;5041189;28;20452;-94
2024/02/04 10:45:18;;;;;;;1.00;0.30;;;;;;;9.55;100.00;153812.84;5065008;28;20538;-93
2024/02/04 10:47:51;;;;;;;0.80;0.30;;;;;;;9.59;99.44;153823.16;5038804;28;20459;-94
2024/02/04 10:50:20;;;;;;;0.70;0.30;;;;;;;9.65;99.68;153837.41;5023339;28;20478;-94
2024/02/04 10:52:47;;;;;;;1.20;0.50;;;;;;;9.71;99.02;153854.25;5044732;28;20977;-94
2024/02/04 10:55:15;;;;;;;1.30;0.50;;;;;;;9.84;98.98;153885.28;5040012;28;20455;-94
2024/02/04 10:57:42;;;;;;;1.73;0.80;;;;;;;9.93;98.94;153908.59;5041476;28;20545;-94
2024/02/04 11:00:11;;;;;;;1.00;0.50;;;;;;;10.08;99.31;153948.72;5022373;28;20444;-95
2024/02/04 11:02:40;;;;;;;2.53;1.00;;;;;;;10.19;98.40;153975.94;5033778;28;20446;-95
2024/02/04 11:05:09;;;;;;;0.90;0.50;;;;;;;10.13;99.23;153960.41;5025712;28;20444;-95
2024/02/04 11:07:36;;;;;;;0.90;0.40;;;;;;;10.14;97.27;153963.00;5029611;28;20814;-94
2024/02/04 11:10:02;;;;;;;1.20;0.57;;;;;;;10.18;98.61;153973.34;5029130;28;20651;-94
2024/02/04 11:12:31;;;;;;;1.20;0.77;;;;;;;10.18;97.89;153973.34;5014160;28;20472;-95
2024/02/04 11:15:00;;;;;;;1.13;0.57;;;;;;;10.25;96.66;153991.44;5014355;28;20903;-93
2024/02/04 11:17:56;;;;;;;1.00;0.40;;;;;;;10.29;96.16;154001.81;5012491;28;20571;-94
2024/02/04 11:20:38;;;;;;;0.80;0.40;;;;;;;10.35;97.34;154017.38;5028811;28;20453;-92
2024/02/04 11:23:20;;;;;;;0.90;0.40;;;;;;;10.35;96.87;154017.38;5027806;28;20828;-92
2024/02/04 11:25:48;;;;;;;1.10;0.30;;;;;;;10.39;96.55;154027.69;5027700;28;20463;-92